Time;durP1;ratioP1;P1;durP2;ratioP2;P2;SDS_P1;SDS_P2;PMS_P1;PMS_P2;Temp;Humidity;BMP_temperature;BMP_pressure;BME280_temperature;BME280_humidity;BME280_pressure;Samples;Min_cycle;Max_cycle;Signal;HPM_P1;HPM_P2
2022/03/13 00:00:30;;;;;;;;;270.75;247.25;5.00;42.90;;;;;;4994345;28;8832;-68
2022/03/13 00:03:00;;;;;;;;;254.00;231.00;5.30;42.00;;;;;;4992226;28;8950;-67
2022/03/13 00:05:26;;;;;;;;;271.50;243.25;5.70;41.30;;;;;;4992512;28;8804;-69
2022/03/13 00:07:56;;;;;;;;;239.25;221.75;5.70;41.10;;;;;;4993916;28;9438;-67
2022/03/13 00:10:30;;;;;;;;;238.50;220.50;5.70;41.00;;;;;;4995861;28;8781;-66
2022/03/13 00:12:56;;;;;;;;;207.25;182.25;5.80;41.00;;;;;;4995936;28;8784;-68
2022/03/13 00:15:34;;;;;;;;;208.25;185.75;5.80;40.70;;;;;;4995554;28;8784;-67
2022/03/13 00:18:01;;;;;;;;;208.75;189.00;5.70;40.60;;;;;;4995588;28;8874;-66
2022/03/13 00:20:27;;;;;;;;;199.75;186.00;5.30;41.70;;;;;;4995389;28;8902;-65
2022/03/13 00:22:54;;;;;;;;;204.25;184.75;5.10;42.20;;;;;;4995016;28;8804;-65
2022/03/13 00:25:20;;;;;;;;;208.25;185.50;4.50;43.60;;;;;;4993772;28;8902;-67
2022/03/13 00:27:47;;;;;;;;;211.75;189.00;4.70;43.00;;;;;;4994529;28;8792;-66
2022/03/13 00:30:13;;;;;;;;;188.75;167.00;5.30;42.30;;;;;;4995095;28;8862;-66
2022/03/13 00:32:39;;;;;;;;;201.00;186.25;5.60;40.70;;;;;;4995853;28;8821;-67
2022/03/13 00:35:05;;;;;;;;;208.00;184.50;5.50;40.90;;;;;;5004521;28;8781;-65
2022/03/13 00:37:31;;;;;;;;;187.75;178.50;5.50;40.70;;;;;;5002612;28;9146;-66
2022/03/13 00:39:57;;;;;;;;;206.00;185.50;5.70;39.80;;;;;;4993240;28;8852;-65
2022/03/13 00:42:24;;;;;;;;;202.50;186.25;5.80;39.90;;;;;;4993033;28;8788;-66
2022/03/13 00:44:50;;;;;;;;;206.75;186.25;5.60;40.60;;;;;;4993794;28;8769;-67
2022/03/13 00:47:18;;;;;;;;;260.50;234.75;5.40;40.70;;;;;;4993092;28;8796;-67
2022/03/13 00:49:45;;;;;;;;;218.50;199.00;4.90;41.70;;;;;;4995287;28;8795;-67
2022/03/13 00:52:11;;;;;;;;;181.75;157.00;4.80;41.60;;;;;;4995301;28;8785;-67
2022/03/13 00:54:37;;;;;;;;;186.25;175.75;4.70;42.40;;;;;;4993761;28;8854;-66
2022/03/13 00:57:03;;;;;;;;;193.75;179.00;4.80;42.00;;;;;;4994974;28;8792;-67
2022/03/13 00:59:29;;;;;;;;;196.75;174.00;4.40;42.80;;;;;;4994350;28;8800;-67
2022/03/13 01:01:55;;;;;;;;;173.00;146.75;4.60;42.60;;;;;;4994848;28;8812;-67
2022/03/13 01:04:21;;;;;;;;;152.50;143.00;4.60;42.00;;;;;;4995102;28;8818;-67
2022/03/13 01:06:47;;;;;;;;;141.25;128.00;4.40;42.40;;;;;;4993789;28;8796;-67
2022/03/13 01:09:13;;;;;;;;;137.50;120.25;4.40;42.60;;;;;;4995144;28;8850;-67
2022/03/13 01:11:39;;;;;;;;;136.00;124.25;4.50;42.20;;;;;;4994828;28;8796;-67
2022/03/13 01:14:06;;;;;;;;;165.25;154.00;4.50;42.60;;;;;;4995066;28;8800;-67
2022/03/13 01:16:40;;;;;;;;;140.25;127.75;4.00;43.80;;;;;;4995126;28;8799;-67
2022/03/13 01:19:08;;;;;;;;;129.75;117.00;3.80;44.40;;;;;;4997032;28;8863;-68
2022/03/13 01:21:38;;;;;;;;;134.00;122.75;4.10;43.60;;;;;;4998695;28;8831;-67
2022/03/13 01:24:10;;;;;;;;;136.50;120.50;4.20;43.30;;;;;;4999103;28;8808;-67
2022/03/13 01:26:38;;;;;;;;;124.75;115.00;4.40;42.70;;;;;;4998773;28;8784;-67
2022/03/13 01:29:12;;;;;;;;;133.75;118.00;4.60;42.50;;;;;;4998941;28;8833;-67
2022/03/13 01:31:43;;;;;;;;;136.50;123.00;4.70;41.80;;;;;;4997663;28;8907;-67
2022/03/13 01:34:36;;;;;;;;;120.75;113.50;4.30;42.50;;;;;;4998825;28;8819;-68
2022/03/13 01:37:03;;;;;;;;;114.25;101.75;4.30;42.50;;;;;;4986233;28;8796;-68
2022/03/13 01:39:29;;;;;;;;;101.75;76.25;4.60;41.80;;;;;;4998419;28;8879;-67
2022/03/13 01:41:56;;;;;;;;;104.25;82.50;4.60;41.60;;;;;;4998331;28;8816;-67
2022/03/13 01:44:22;;;;;;;;;104.00;88.00;4.80;41.10;;;;;;4998403;28;8768;-68
2022/03/13 01:46:48;;;;;;;;;102.50;81.25;4.20;42.20;;;;;;4998452;28;8764;-67
2022/03/13 01:49:16;;;;;;;;;115.00;105.75;4.20;42.70;;;;;;4998312;28;8800;-67
2022/03/13 01:51:42;;;;;;;;;121.75;108.25;4.40;42.50;;;;;;4998219;28;8850;-67
2022/03/13 01:54:10;;;;;;;;;126.25;116.50;4.70;41.80;;;;;;4997994;28;8852;-67
2022/03/13 01:56:37;;;;;;;;;138.00;123.75;4.40;41.90;;;;;;4998151;28;8887;-67
2022/03/13 01:59:06;;;;;;;;;131.25;118.75;4.60;41.70;;;;;;4998000;28;8772;-66
2022/03/13 02:01:33;;;;;;;;;116.50;110.50;4.80;41.30;;;;;;4997924;28;8812;-67
2022/03/13 02:03:59;;;;;;;;;146.75;129.75;4.60;42.10;;;;;;4997980;28;8815;-67
2022/03/13 02:06:26;;;;;;;;;134.50;118.25;4.00;43.50;;;;;;4998238;28;9434;-67
2022/03/13 02:08:54;;;;;;;;;127.50;110.25;4.20;43.10;;;;;;4997930;28;8883;-68
2022/03/13 02:11:26;;;;;;;;;131.00;113.50;4.50;42.40;;;;;;4998106;28;8803;-67
2022/03/13 02:13:54;;;;;;;;;126.00;114.50;4.50;42.60;;;;;;4998117;28;8822;-66
2022/03/13 02:16:22;;;;;;;;;120.75;108.50;4.50;42.70;;;;;;4998082;28;8772;-67
2022/03/13 02:18:53;;;;;;;;;149.50;138.00;4.70;42.50;;;;;;4998079;28;8788;-68
2022/03/13 02:21:24;;;;;;;;;171.75;148.75;4.60;42.10;;;;;;4998228;28;8840;-67
2022/03/13 02:23:50;;;;;;;;;186.00;166.75;4.20;43.40;;;;;;4997755;28;8854;-67
2022/03/13 02:26:15;;;;;;;;;183.25;166.50;3.50;45.90;;;;;;4997871;28;8764;-67
2022/03/13 02:29:01;;;;;;;;;214.00;195.50;2.70;48.90;;;;;;4997823;28;8803;-68
2022/03/13 02:31:34;;;;;;;;;198.50;173.00;2.70;49.40;;;;;;4996872;28;8768;-68
2022/03/13 02:34:00;;;;;;;;;197.50;178.00;3.40;47.50;;;;;;4997539;28;9850;-67
2022/03/13 02:36:31;;;;;;;;;215.75;185.75;3.60;45.90;;;;;;4997377;28;8776;-67
2022/03/13 02:38:58;;;;;;;;;203.00;181.25;3.70;45.90;;;;;;4997713;28;8779;-67
2022/03/13 02:41:27;;;;;;;;;201.75;180.50;3.00;47.40;;;;;;4997220;28;8812;-67
2022/03/13 02:43:54;;;;;;;;;199.00;177.25;2.90;48.10;;;;;;4997298;28;8784;-67
2022/03/13 02:46:21;;;;;;;;;221.50;202.00;2.80;48.30;;;;;;4997499;28;8757;-67
2022/03/13 02:48:49;;;;;;;;;221.50;199.00;3.00;47.70;;;;;;4997226;28;8784;-67
2022/03/13 02:51:16;;;;;;;;;213.75;197.00;3.40;46.60;;;;;;4997207;28;8801;-68
2022/03/13 02:53:42;;;;;;;;;230.50;210.50;3.40;46.10;;;;;;4997012;28;8947;-67
2022/03/13 02:56:08;;;;;;;;;236.50;204.50;3.60;45.80;;;;;;4997072;28;8899;-68
2022/03/13 02:58:34;;;;;;;;;212.00;191.50;4.00;44.80;;;;;;4997276;28;8799;-68
2022/03/13 03:01:00;;;;;;;;;230.25;199.50;4.10;44.20;;;;;;4997136;28;8816;-68
2022/03/13 03:03:27;;;;;;;;;236.00;208.25;4.20;44.10;;;;;;4996969;28;8787;-68
2022/03/13 03:05:53;;;;;;;;;230.25;203.75;3.90;45.10;;;;;;4996865;28;8808;-68
2022/03/13 03:08:20;;;;;;;;;227.25;201.25;4.10;44.60;;;;;;4996910;28;8789;-67
2022/03/13 03:10:46;;;;;;;;;164.25;156.75;4.10;44.40;;;;;;4996909;28;8850;-68
2022/03/13 03:13:15;;;;;;;;;202.50;177.75;4.30;44.20;;;;;;4996756;28;8784;-66
2022/03/13 03:15:41;;;;;;;;;179.75;158.00;4.40;43.80;;;;;;4996716;28;8795;-66
2022/03/13 03:18:09;;;;;;;;;190.50;169.25;4.30;44.10;;;;;;4996664;28;8772;-67
2022/03/13 03:20:35;;;;;;;;;187.25;161.75;3.90;44.30;;;;;;4996514;28;8816;-67
2022/03/13 03:23:02;;;;;;;;;180.50;160.00;4.30;44.10;;;;;;4996596;28;8753;-68
2022/03/13 03:25:28;;;;;;;;;153.75;147.75;4.60;43.20;;;;;;4996533;28;8792;-69
2022/03/13 03:27:57;;;;;;;;;169.75;154.50;4.10;43.30;;;;;;4996587;28;8887;-67
2022/03/13 03:30:25;;;;;;;;;160.00;146.75;4.10;43.90;;;;;;4996688;28;8780;-67
2022/03/13 03:32:52;;;;;;;;;156.50;145.75;3.60;45.00;;;;;;4996382;28;8839;-69
2022/03/13 03:35:19;;;;;;;;;168.75;141.25;3.30;46.20;;;;;;4996267;28;8778;-69
2022/03/13 03:37:46;;;;;;;;;226.25;207.00;3.80;45.10;;;;;;4996349;28;8769;-68
2022/03/13 03:40:12;;;;;;;;;191.50;170.75;4.20;44.10;;;;;;4996266;28;8812;-67
2022/03/13 03:42:39;;;;;;;;;216.50;196.00;4.60;43.50;;;;;;4996168;28;8929;-68
2022/03/13 03:45:06;;;;;;;;;209.75;182.50;4.50;43.40;;;;;;4996129;28;8772;-68
2022/03/13 03:47:32;;;;;;;;;193.75;189.25;4.80;43.10;;;;;;4996349;28;8781;-68
2022/03/13 03:49:58;;;;;;;;;214.25;192.00;4.70;42.50;;;;;;4996343;28;8811;-69
2022/03/13 03:52:24;;;;;;;;;206.50;175.75;4.70;42.50;;;;;;4996258;28;8871;-69
2022/03/13 03:54:51;;;;;;;;;219.00;195.75;4.50;42.70;;;;;;4994902;28;8840;-68
2022/03/13 03:57:18;;;;;;;;;371.00;307.50;4.30;43.00;;;;;;4996496;28;9450;-69
2022/03/13 03:59:44;;;;;;;;;262.00;230.00;4.30;43.10;;;;;;4996383;28;9438;-67
2022/03/13 04:02:10;;;;;;;;;238.25;211.50;4.30;43.50;;;;;;4996111;28;8800;-66
2022/03/13 04:04:36;;;;;;;;;212.25;195.25;4.20;44.10;;;;;;4994844;28;8819;-66
2022/03/13 04:07:02;;;;;;;;;238.50;211.75;4.50;43.00;;;;;;4995842;28;8790;-67
2022/03/13 04:09:28;;;;;;;;;227.25;207.75;4.70;42.40;;;;;;4995809;28;8862;-67
2022/03/13 04:11:54;;;;;;;;;266.25;236.25;4.80;42.10;;;;;;4995676;28;8768;-66
2022/03/13 04:14:21;;;;;;;;;261.50;228.50;5.00;41.70;;;;;;4995779;28;8879;-66
2022/03/13 04:16:47;;;;;;;;;216.75;187.75;5.00;41.50;;;;;;4995911;28;8788;-67
2022/03/13 04:19:13;;;;;;;;;250.50;218.50;4.90;41.70;;;;;;4995860;28;8843;-66
2022/03/13 04:21:41;;;;;;;;;237.00;211.00;4.70;41.80;;;;;;4995703;28;8812;-66
2022/03/13 04:24:08;;;;;;;;;247.25;228.25;4.50;41.90;;;;;;4995619;28;8818;-66
2022/03/13 04:26:33;;;;;;;;;238.50;212.75;4.70;42.30;;;;;;4995400;28;8883;-66
2022/03/13 04:29:00;;;;;;;;;239.25;213.00;4.70;42.40;;;;;;4995433;28;8931;-65
2022/03/13 04:31:26;;;;;;;;;243.50;213.25;4.80;43.20;;;;;;4995388;28;8781;-65
2022/03/13 04:33:51;;;;;;;;;243.25;218.50;4.90;42.10;;;;;;4995307;28;8886;-67
2022/03/13 04:36:21;;;;;;;;;225.25;200.00;5.00;41.70;;;;;;4995535;28;8768;-67
2022/03/13 04:38:47;;;;;;;;;215.50;193.25;4.70;41.50;;;;;;4995265;28;8780;-67
2022/03/13 04:41:13;;;;;;;;;224.75;203.00;4.20;42.60;;;;;;4995067;28;8825;-67
2022/03/13 04:43:39;;;;;;;;;215.00;195.50;4.10;43.40;;;;;;4995179;28;8796;-68
2022/03/13 04:46:05;;;;;;;;;203.00;177.50;3.20;45.60;;;;;;4994997;28;8819;-68
2022/03/13 04:48:32;;;;;;;;;214.25;190.25;3.20;45.70;;;;;;4995102;28;8926;-68
2022/03/13 04:50:59;;;;;;;;;220.50;197.00;3.20;45.90;;;;;;4995056;28;8780;-68
2022/03/13 04:53:26;;;;;;;;;230.50;196.25;2.40;48.40;;;;;;4994273;28;8800;-66
2022/03/13 04:55:52;;;;;;;;;224.00;202.25;2.40;48.80;;;;;;4995273;28;8773;-67
2022/03/13 04:58:19;;;;;;;;;240.00;216.00;2.40;48.70;;;;;;4995325;28;8738;-67
2022/03/13 05:00:47;;;;;;;;;226.25;206.00;2.30;49.10;;;;;;4993931;28;8802;-66
2022/03/13 05:03:15;;;;;;;;;234.00;217.50;2.70;48.50;;;;;;4994788;28;8894;-66
2022/03/13 05:05:41;;;;;;;;;286.25;252.75;3.10;47.10;;;;;;4995015;28;8791;-66
2022/03/13 05:08:15;;;;;;;;;256.00;230.75;3.20;46.60;;;;;;4994860;28;8780;-66
2022/03/13 05:10:43;;;;;;;;;280.00;243.50;2.40;48.10;;;;;;4994859;28;8883;-66
2022/03/13 05:13:14;;;;;;;;;274.75;245.00;2.70;48.00;;;;;;4994996;28;8805;-67
2022/03/13 05:15:41;;;;;;;;;247.25;225.75;2.80;48.10;;;;;;4994796;28;8777;-68
2022/03/13 05:18:07;;;;;;;;;241.50;216.00;2.30;49.30;;;;;;4994732;28;8875;-67
2022/03/13 05:20:36;;;;;;;;;265.75;237.25;1.70;50.90;;;;;;4994668;28;8923;-66
2022/03/13 05:23:04;;;;;;;;;281.50;246.25;1.80;52.00;;;;;;4994610;28;8857;-67
2022/03/13 05:25:35;;;;;;;;;295.50;271.25;2.50;50.20;;;;;;4994695;28;8789;-67
2022/03/13 05:28:02;;;;;;;;;303.75;271.50;2.90;48.30;;;;;;4994724;28;8775;-66
2022/03/13 05:30:28;;;;;;;;;242.25;228.00;2.70;48.70;;;;;;4994596;28;8800;-67
2022/03/13 05:32:55;;;;;;;;;222.50;202.75;2.70;48.60;;;;;;4994650;28;8768;-66
2022/03/13 05:35:21;;;;;;;;;268.25;234.75;2.60;49.20;;;;;;4994641;28;8757;-67
2022/03/13 05:37:47;;;;;;;;;265.00;227.25;2.70;49.40;;;;;;4994820;28;8776;-67
2022/03/13 05:40:15;;;;;;;;;233.50;204.00;2.70;49.10;;;;;;4994022;28;8815;-67
2022/03/13 05:42:46;;;;;;;;;211.75;190.25;3.10;47.00;;;;;;4994539;28;8780;-68
2022/03/13 05:45:15;;;;;;;;;191.25;175.25;3.60;45.90;;;;;;4994476;28;8947;-67
2022/03/13 05:47:53;;;;;;;;;222.25;208.75;3.90;45.10;;;;;;4994746;28;8779;-66
2022/03/13 05:50:21;;;;;;;;;237.50;216.00;3.60;45.20;;;;;;4994623;28;8812;-66
2022/03/13 05:52:48;;;;;;;;;215.25;197.50;3.30;46.30;;;;;;4994664;28;9560;-67
2022/03/13 05:55:17;;;;;;;;;191.50;173.25;3.60;45.80;;;;;;4994082;28;9508;-67
2022/03/13 05:57:43;;;;;;;;;209.25;185.75;3.70;45.00;;;;;;4994467;28;8768;-67
2022/03/13 06:00:12;;;;;;;;;232.75;201.50;3.30;45.90;;;;;;4994435;28;9010;-67
2022/03/13 06:02:39;;;;;;;;;229.50;208.75;3.40;46.30;;;;;;4994375;28;8794;-67
2022/03/13 06:05:06;;;;;;;;;249.50;226.50;3.60;45.50;;;;;;4994857;28;8776;-66
2022/03/13 06:07:32;;;;;;;;;234.50;201.75;3.70;46.20;;;;;;4998007;28;8776;-68
2022/03/13 06:09:58;;;;;;;;;243.25;221.75;3.50;46.30;;;;;;4997922;28;8882;-67
2022/03/13 06:12:24;;;;;;;;;218.50;199.75;3.70;46.10;;;;;;4998234;28;8877;-67
2022/03/13 06:14:50;;;;;;;;;241.00;215.50;3.90;45.40;;;;;;4997733;28;8804;-66
2022/03/13 06:17:16;;;;;;;;;225.50;205.50;4.00;44.90;;;;;;4998052;28;8776;-67
2022/03/13 06:19:42;;;;;;;;;224.00;205.25;4.40;44.30;;;;;;4997693;28;8765;-67
2022/03/13 06:22:10;;;;;;;;;244.75;218.75;4.50;43.30;;;;;;4997638;28;8923;-68
2022/03/13 06:24:36;;;;;;;;;224.00;205.00;4.90;43.10;;;;;;4997944;28;9407;-67
2022/03/13 06:27:03;;;;;;;;;178.00;176.50;5.20;42.40;;;;;;4997779;28;8788;-67
2022/03/13 06:29:31;;;;;;;;;205.25;188.50;5.20;42.30;;;;;;4997686;28;8811;-67
2022/03/13 06:31:58;;;;;;;;;217.25;196.75;5.20;42.20;;;;;;4997520;28;8805;-66
2022/03/13 06:34:24;;;;;;;;;251.50;232.75;5.30;42.10;;;;;;4997368;28;8847;-67
2022/03/13 06:36:50;;;;;;;;;260.75;233.25;5.30;42.10;;;;;;4997406;28;8871;-67
2022/03/13 06:39:16;;;;;;;;;245.75;215.25;5.40;42.10;;;;;;4997339;28;8799;-68
2022/03/13 06:41:42;;;;;;;;;216.50;201.25;5.10;42.70;;;;;;4997517;28;8797;-68
2022/03/13 06:44:08;;;;;;;;;219.25;196.75;5.10;42.90;;;;;;4997541;28;8879;-67
2022/03/13 06:46:35;;;;;;;;;225.00;202.25;5.00;43.40;;;;;;4997373;28;8775;-67
2022/03/13 06:49:03;;;;;;;;;209.75;193.50;5.00;43.70;;;;;;4997224;28;8785;-67
2022/03/13 06:51:29;;;;;;;;;204.00;189.75;4.30;45.60;;;;;;4997127;28;8915;-67
2022/03/13 06:53:54;;;;;;;;;222.00;196.50;4.20;45.90;;;;;;4997038;28;8856;-67
2022/03/13 06:56:20;;;;;;;;;191.00;171.50;4.60;45.20;;;;;;4997346;28;8802;-68
2022/03/13 06:58:53;;;;;;;;;188.75;175.50;4.90;44.10;;;;;;4997424;28;8796;-69
2022/03/13 07:01:18;;;;;;;;;171.00;158.50;5.20;43.60;;;;;;4997360;28;8835;-68
2022/03/13 07:03:45;;;;;;;;;167.25;164.50;5.20;43.60;;;;;;4997004;28;8784;-68
2022/03/13 07:06:11;;;;;;;;;167.75;150.50;4.90;44.10;;;;;;4996913;28;8788;-67
2022/03/13 07:08:37;;;;;;;;;177.25;166.00;5.00;43.40;;;;;;4996818;28;8799;-68
2022/03/13 07:11:03;;;;;;;;;174.50;151.75;4.80;43.80;;;;;;4996571;28;8788;-67
2022/03/13 07:13:32;;;;;;;;;173.50;155.00;4.70;42.80;;;;;;4996753;28;8792;-67
2022/03/13 07:16:03;;;;;;;;;153.25;140.75;5.40;42.00;;;;;;4996095;28;8784;-67
2022/03/13 07:18:30;;;;;;;;;168.25;153.50;5.30;41.60;;;;;;4996517;28;8812;-68
2022/03/13 07:20:57;;;;;;;;;125.50;113.75;5.40;41.20;;;;;;4996558;28;8811;-67
2022/03/13 07:23:23;;;;;;;;;125.00;114.50;5.60;38.90;;;;;;4996361;28;8811;-68
2022/03/13 07:25:50;;;;;;;;;108.50;98.50;5.40;37.70;;;;;;4996234;28;8772;-67
2022/03/13 07:28:16;;;;;;;;;106.00;91.50;5.40;37.10;;;;;;4995116;28;8787;-67
2022/03/13 07:30:41;;;;;;;;;110.25;101.25;4.80;37.90;;;;;;4996283;28;8784;-68
2022/03/13 07:33:07;;;;;;;;;115.50;109.00;5.00;37.80;;;;;;4996351;28;8753;-68
2022/03/13 07:35:33;;;;;;;;;150.00;138.00;5.30;36.80;;;;;;4996278;28;8777;-69
2022/03/13 07:37:59;;;;;;;;;131.25;119.50;5.70;37.30;;;;;;4995978;28;8796;-68
2022/03/13 07:40:25;;;;;;;;;138.25;127.25;6.30;36.20;;;;;;4996190;28;8824;-68
2022/03/13 07:42:50;;;;;;;;;133.00;128.25;6.80;35.20;;;;;;4996264;28;8788;-68
2022/03/13 07:45:16;;;;;;;;;124.25;109.25;7.10;35.00;;;;;;4996396;28;8878;-68
2022/03/13 07:47:42;;;;;;;;;127.00;114.00;7.30;34.80;;;;;;4996576;28;8871;-68
2022/03/13 07:50:09;;;;;;;;;123.25;105.50;7.50;34.70;;;;;;4995407;28;8772;-69
2022/03/13 07:52:35;;;;;;;;;125.00;113.00;7.40;33.80;;;;;;5002468;28;8802;-68
2022/03/13 07:55:01;;;;;;;;;113.75;102.50;7.40;33.70;;;;;;5005140;28;8837;-69
2022/03/13 07:57:30;;;;;;;;;114.50;104.50;7.60;33.40;;;;;;5005435;28;8768;-69
2022/03/13 07:59:56;;;;;;;;;101.25;90.25;7.50;33.00;;;;;;5004305;28;8811;-68
2022/03/13 08:02:22;;;;;;;;;100.75;86.50;7.70;32.30;;;;;;4994575;28;8780;-67
2022/03/13 08:04:48;;;;;;;;;104.75;91.50;7.50;32.20;;;;;;4996605;28;8776;-68
2022/03/13 08:07:13;;;;;;;;;103.00;86.50;7.70;32.60;;;;;;4995805;28;8795;-69
2022/03/13 08:09:39;;;;;;;;;101.25;86.75;7.70;32.70;;;;;;4995651;28;8891;-71
2022/03/13 08:12:06;;;;;;;;;100.50;83.00;7.90;32.60;;;;;;4991448;28;8781;-70
2022/03/13 08:14:32;;;;;;;;;103.50;89.50;8.10;32.00;;;;;;4995499;28;8773;-65
2022/03/13 08:16:58;;;;;;;;;101.25;85.00;8.30;31.60;;;;;;4995702;28;8795;-69
2022/03/13 08:19:24;;;;;;;;;106.75;96.75;8.50;31.40;;;;;;4995458;28;9632;-69
2022/03/13 08:21:50;;;;;;;;;101.75;89.75;8.50;31.50;;;;;;4995362;28;8820;-68
2022/03/13 08:24:17;;;;;;;;;108.25;104.75;8.30;32.60;;;;;;4995819;28;8823;-68
2022/03/13 08:26:43;;;;;;;;;100.25;82.50;7.90;32.90;;;;;;4995537;28;8772;-68
2022/03/13 08:29:10;;;;;;;;;106.00;97.00;8.00;32.30;;;;;;4994927;28;8807;-69
2022/03/13 08:31:37;;;;;;;;;101.25;96.25;7.80;34.30;;;;;;4995266;28;8785;-70
2022/03/13 08:34:08;;;;;;;;;90.75;72.75;7.90;33.80;;;;;;4995557;28;8768;-70
2022/03/13 08:36:37;;;;;;;;;93.75;77.25;7.50;33.90;;;;;;4995563;28;8787;-70
2022/03/13 08:39:03;;;;;;;;;102.00;90.75;7.90;32.80;;;;;;4995468;28;8870;-70
2022/03/13 08:41:29;;;;;;;;;95.50;82.50;8.40;32.70;;;;;;4995347;28;8941;-72
2022/03/13 08:43:55;;;;;;;;;105.50;96.25;8.40;33.10;;;;;;4995284;28;8788;-71
2022/03/13 08:46:21;;;;;;;;;101.00;93.25;8.40;33.20;;;;;;4995008;28;9538;-70
2022/03/13 08:48:47;;;;;;;;;96.75;82.75;8.80;32.50;;;;;;4994992;28;8804;-71
2022/03/13 08:51:14;;;;;;;;;91.75;77.25;8.50;32.10;;;;;;4995061;28;8772;-72
2022/03/13 08:53:40;;;;;;;;;88.75;72.00;8.50;31.90;;;;;;4995104;28;8847;-71
2022/03/13 08:56:06;;;;;;;;;76.75;61.75;8.60;30.80;;;;;;4995407;28;8811;-70
2022/03/13 08:58:32;;;;;;;;;72.50;59.00;8.20;31.40;;;;;;4994249;28;8812;-70
2022/03/13 09:00:58;;;;;;;;;73.00;59.50;8.00;30.60;;;;;;4994718;28;9471;-71
2022/03/13 09:03:26;;;;;;;;;76.50;60.50;7.70;30.10;;;;;;4995252;28;8807;-70
2022/03/13 09:05:54;;;;;;;;;65.50;54.50;8.30;29.40;;;;;;4993692;28;8890;-70
2022/03/13 09:08:20;;;;;;;;;69.50;57.50;8.60;29.40;;;;;;4993856;28;8931;-69
2022/03/13 09:10:46;;;;;;;;;70.75;55.75;8.30;30.00;;;;;;4994396;28;8923;-69
2022/03/13 09:13:13;;;;;;;;;67.75;54.50;8.30;29.80;;;;;;4994335;28;8800;-69
2022/03/13 09:15:39;;;;;;;;;64.75;54.00;8.60;29.80;;;;;;4993041;28;8799;-66
2022/03/13 09:18:06;;;;;;;;;56.00;48.00;8.70;29.40;;;;;;4993795;28;8784;-67
2022/03/13 09:20:32;;;;;;;;;65.25;52.75;8.70;33.60;;;;;;4994754;28;8896;-67
2022/03/13 09:22:57;;;;;;;;;66.00;53.75;9.00;31.70;;;;;;4994963;28;8773;-68
2022/03/13 09:25:23;;;;;;;;;63.75;51.50;9.50;32.50;;;;;;4994298;28;8800;-66
2022/03/13 09:27:52;;;;;;;;;62.25;52.25;9.70;32.70;;;;;;4993951;28;8801;-66
2022/03/13 09:30:18;;;;;;;;;55.50;45.50;9.70;30.00;;;;;;4994597;28;8795;-66
2022/03/13 09:32:44;;;;;;;;;55.25;45.50;9.00;29.30;;;;;;5013536;28;8774;-65
2022/03/13 09:35:11;;;;;;;;;54.25;45.25;9.10;30.00;;;;;;5014563;28;8885;-65
2022/03/13 09:37:39;;;;;;;;;60.75;49.75;9.50;29.50;;;;;;5014203;28;8782;-64
2022/03/13 09:40:06;;;;;;;;;57.75;49.00;9.00;28.70;;;;;;5015940;28;8777;-66
2022/03/13 09:42:32;;;;;;;;;57.00;45.25;9.30;29.90;;;;;;5018273;28;8766;-66
2022/03/13 09:44:59;;;;;;;;;52.75;43.25;9.40;29.20;;;;;;5018132;28;8867;-66
2022/03/13 09:47:27;;;;;;;;;52.75;44.50;9.30;28.20;;;;;;5018064;28;8774;-66
2022/03/13 09:49:53;;;;;;;;;41.00;37.50;9.20;27.30;;;;;;5018364;28;8770;-67
2022/03/13 09:52:19;;;;;;;;;52.25;42.25;9.00;25.70;;;;;;5018149;28;8794;-67
2022/03/13 09:54:45;;;;;;;;;49.00;40.00;9.80;25.90;;;;;;5017828;28;8940;-68
2022/03/13 09:57:11;;;;;;;;;57.50;47.50;10.40;25.50;;;;;;5006933;28;8958;-66
2022/03/13 09:59:37;;;;;;;;;54.75;43.75;10.80;25.80;;;;;;4980004;28;8799;-66
2022/03/13 10:02:07;;;;;;;;;54.75;44.00;10.30;27.40;;;;;;4978670;28;8811;-66
2022/03/13 10:04:34;;;;;;;;;53.50;41.50;10.30;27.10;;;;;;4978749;28;8787;-72
2022/03/13 10:07:07;;;;;;;;;51.50;44.50;10.00;27.60;;;;;;4978206;28;8776;-73
2022/03/13 10:09:35;;;;;;;;;58.25;49.00;10.30;26.40;;;;;;4978627;28;8865;-71
2022/03/13 10:12:04;;;;;;;;;58.00;48.75;10.40;25.90;;;;;;4978413;28;8787;-72
2022/03/13 10:14:30;;;;;;;;;56.00;44.75;10.30;26.30;;;;;;4978809;28;8767;-69
2022/03/13 10:16:56;;;;;;;;;49.75;42.25;10.80;26.00;;;;;;4978467;28;8836;-68
2022/03/13 10:19:24;;;;;;;;;45.50;40.25;11.00;26.60;;;;;;4978427;28;8782;-66
2022/03/13 10:22:08;;;;;;;;;52.25;41.75;11.30;25.50;;;;;;4977621;28;8842;-62
2022/03/13 10:24:49;;;;;;;;;54.75;45.25;11.80;25.10;;;;;;4976851;28;8807;-65
2022/03/13 10:27:19;;;;;;;;;50.75;43.25;11.50;24.50;;;;;;4989674;28;8792;-65
2022/03/13 10:29:46;;;;;;;;;45.75;38.25;11.30;24.30;;;;;;4997109;28;8784;-67
2022/03/13 10:32:12;;;;;;;;;49.25;40.50;11.80;23.30;;;;;;4997322;28;8784;-64
2022/03/13 10:34:39;;;;;;;;;45.00;39.00;12.60;22.40;;;;;;4997934;28;8818;-64
2022/03/13 10:37:05;;;;;;;;;54.00;45.00;13.30;21.50;;;;;;4996868;28;8800;-65
2022/03/13 10:39:34;;;;;;;;;51.25;42.00;13.70;21.60;;;;;;4997016;28;8781;-67
2022/03/13 10:42:03;;;;;;;;;51.50;43.00;13.60;23.20;;;;;;4996934;28;8844;-73
2022/03/13 10:44:34;;;;;;;;;57.25;46.25;13.40;22.20;;;;;;4995648;28;8820;-67
2022/03/13 10:47:08;;;;;;;;;45.75;40.00;12.80;22.70;;;;;;4994172;28;8788;-73
2022/03/13 10:49:40;;;;;;;;;53.00;44.00;12.90;22.10;;;;;;4995947;28;8796;-65
2022/03/13 10:52:25;;;;;;;;;45.50;39.75;12.90;21.20;;;;;;4996178;28;9446;-65
2022/03/13 10:54:53;;;;;;;;;49.50;41.50;14.00;21.30;;;;;;4996910;28;8844;-66
2022/03/13 10:57:19;;;;;;;;;51.25;41.75;14.90;21.00;;;;;;4996351;28;8769;-63
2022/03/13 10:59:45;;;;;;;;;49.00;41.50;15.50;20.60;;;;;;4996692;28;8886;-63
2022/03/13 11:02:22;;;;;;;;;32.00;30.25;15.90;19.40;;;;;;4997008;28;8960;-62
2022/03/13 11:04:55;;;;;;;;;43.50;37.50;15.90;20.80;;;;;;4997130;28;8798;-64
2022/03/13 11:07:22;;;;;;;;;52.50;43.25;16.40;20.20;;;;;;4996910;28;8776;-64
2022/03/13 11:09:49;;;;;;;;;51.50;44.00;17.00;18.50;;;;;;4996417;28;8792;-64
2022/03/13 11:12:20;;;;;;;;;39.25;35.50;16.80;18.30;;;;;;4996955;28;8780;-64
2022/03/13 11:14:48;;;;;;;;;40.75;36.00;15.40;19.90;;;;;;4997081;28;8861;-63
2022/03/13 11:17:17;;;;;;;;;41.25;34.25;15.00;20.10;;;;;;4996973;28;8792;-63
2022/03/13 11:19:44;;;;;;;;;47.00;40.00;15.80;18.90;;;;;;4996806;28;8780;-67
2022/03/13 11:22:09;;;;;;;;;47.33;40.00;16.70;18.40;;;;;;4996606;28;8820;-65
2022/03/13 11:24:36;;;;;;;;;48.33;39.00;19.70;16.40;;;;;;4996995;28;8820;-68
2022/03/13 11:27:08;;;;;;;;;47.00;40.33;23.70;15.10;;;;;;4996300;28;8765;-67
2022/03/13 11:29:48;;;;;;;;;47.33;40.67;27.90;13.40;;;;;;4996620;28;8784;-67
2022/03/13 11:32:50;;;;;;;;;48.00;40.67;31.10;11.70;;;;;;4996705;28;8769;-68
2022/03/13 11:35:16;;;;;;;;;44.67;38.67;32.70;11.10;;;;;;4955540;28;8802;-68
2022/03/13 11:37:50;;;;;;;;;44.00;38.00;34.90;11.70;;;;;;4955308;28;8771;-67
2022/03/13 11:40:18;;;;;;;;;45.67;39.00;36.10;10.50;;;;;;4955346;28;8918;-65
2022/03/13 11:42:50;;;;;;;;;43.67;37.67;37.70;10.10;;;;;;4955387;28;8909;-64
2022/03/13 11:45:32;;;;;;;;;44.00;39.00;37.50;9.10;;;;;;4955457;28;8898;-65
2022/03/13 11:48:22;;;;;;;;;43.33;37.33;37.80;9.50;;;;;;4955231;28;8782;-64
2022/03/13 11:50:52;;;;;;;;;40.67;35.67;36.50;9.10;;;;;;4955309;28;8803;-64
2022/03/13 11:53:19;;;;;;;;;23.00;23.00;35.90;9.30;;;;;;4955033;28;9450;-64
2022/03/13 11:56:00;;;;;;;;;28.33;28.33;36.70;9.60;;;;;;4939044;28;11769;-64
2022/03/13 11:58:53;;;;;;;;;20.67;20.67;36.80;9.20;;;;;;4955157;28;8791;-65
2022/03/13 12:01:34;;;;;;;;;28.00;28.00;37.50;8.60;;;;;;4953313;28;8834;-66
2022/03/13 12:04:07;;;;;;;;;20.00;20.00;35.10;8.80;;;;;;4954015;28;8794;-71
2022/03/13 12:06:44;;;;;;;;;21.00;21.00;34.10;9.20;;;;;;4953011;28;8881;-68
2022/03/13 12:09:11;;;;;;;;;25.33;25.33;35.60;8.90;;;;;;4965277;28;8791;-68
2022/03/13 12:11:45;;;;;;;;;27.33;27.33;37.00;8.80;;;;;;4973178;28;9548;-66
2022/03/13 12:14:14;;;;;;;;;26.67;26.67;38.30;8.80;;;;;;4976465;28;8805;-68
2022/03/13 12:16:42;;;;;;;;;26.67;26.67;38.20;8.40;;;;;;4976313;28;9445;-69
2022/03/13 12:19:10;;;;;;;;;25.67;25.67;34.00;8.70;;;;;;4976453;28;8771;-65
2022/03/13 12:21:37;;;;;;;;;23.33;23.33;35.00;8.70;;;;;;4975912;28;8806;-69
2022/03/13 12:24:15;;;;;;;;;14.67;14.67;36.60;8.20;;;;;;4976184;28;8811;-69
2022/03/13 12:26:42;;;;;;;;;21.00;21.00;37.80;8.10;;;;;;4981315;28;11534;-70
2022/03/13 12:29:08;;;;;;;;;24.33;24.33;39.20;8.30;;;;;;4994663;28;11519;-67
2022/03/13 12:31:48;;;;;;;;;20.33;20.33;38.30;8.10;;;;;;4995126;28;11536;-69
2022/03/13 12:34:28;;;;;;;;;26.00;26.00;35.50;8.00;;;;;;4995061;28;8796;-67
2022/03/13 12:36:54;;;;;;;;;24.67;24.67;32.20;9.30;;;;;;4995266;28;8776;-65